sensor_id;sensor_type;location;lat;lon;timestamp;P1;durP1;ratioP1;P2;durP2;ratioP2
19810;SDS011;10065;49.632;8.346;2022-07-29T00:02:01;5.70;;;1.83;;
19810;SDS011;10065;49.632;8.346;2022-07-29T00:04:29;6.93;;;1.30;;
19810;SDS011;10065;49.632;8.346;2022-07-29T00:06:57;6.20;;;1.88;;
19810;SDS011;10065;49.632;8.346;2022-07-29T00:09:25;3.17;;;1.40;;
19810;SDS011;10065;49.632;8.346;2022-07-29T00:11:52;6.63;;;1.42;;
19810;SDS011;10065;49.632;8.346;2022-07-29T00:14:23;7.50;;;1.70;;
19810;SDS011;10065;49.632;8.346;2022-07-29T00:16:51;6.65;;;1.63;;
19810;SDS011;10065;49.632;8.346;2022-07-29T00:19:19;4.00;;;1.80;;
19810;SDS011;10065;49.632;8.346;2022-07-29T00:21:48;12.02;;;1.85;;
19810;SDS011;10065;49.632;8.346;2022-07-29T00:24:16;5.72;;;1.40;;
19810;SDS011;10065;49.632;8.346;2022-07-29T00:26:44;5.75;;;1.70;;
19810;SDS011;10065;49.632;8.346;2022-07-29T00:29:12;8.60;;;1.93;;
19810;SDS011;10065;49.632;8.346;2022-07-29T00:32:00;4.18;;;1.73;;
19810;SDS011;10065;49.632;8.346;2022-07-29T00:34:29;4.20;;;1.30;;
19810;SDS011;10065;49.632;8.346;2022-07-29T00:37:19;7.43;;;1.35;;
19810;SDS011;10065;49.632;8.346;2022-07-29T00:39:47;4.38;;;1.80;;
19810;SDS011;10065;49.632;8.346;2022-07-29T00:42:15;3.63;;;1.40;;
19810;SDS011;10065;49.632;8.346;2022-07-29T00:44:44;4.53;;;1.48;;
19810;SDS011;10065;49.632;8.346;2022-07-29T00:47:13;6.53;;;1.70;;
19810;SDS011;10065;49.632;8.346;2022-07-29T00:49:41;5.73;;;1.70;;
19810;SDS011;10065;49.632;8.346;2022-07-29T00:52:10;4.53;;;1.77;;
19810;SDS011;10065;49.632;8.346;2022-07-29T00:54:42;7.47;;;2.17;;
19810;SDS011;10065;49.632;8.346;2022-07-29T00:57:10;6.23;;;1.60;;
19810;SDS011;10065;49.632;8.346;2022-07-29T00:59:39;6.93;;;1.57;;
19810;SDS011;10065;49.632;8.346;2022-07-29T01:02:07;4.25;;;1.58;;
19810;SDS011;10065;49.632;8.346;2022-07-29T01:04:36;3.97;;;1.40;;
19810;SDS011;10065;49.632;8.346;2022-07-29T01:07:04;4.00;;;1.50;;
19810;SDS011;10065;49.632;8.346;2022-07-29T01:09:33;6.32;;;1.67;;
19810;SDS011;10065;49.632;8.346;2022-07-29T01:12:12;6.97;;;1.85;;
19810;SDS011;10065;49.632;8.346;2022-07-29T01:14:42;7.90;;;1.63;;
19810;SDS011;10065;49.632;8.346;2022-07-29T01:17:12;4.10;;;1.33;;
19810;SDS011;10065;49.632;8.346;2022-07-29T01:19:47;3.95;;;1.17;;
19810;SDS011;10065;49.632;8.346;2022-07-29T01:22:27;7.57;;;1.88;;
19810;SDS011;10065;49.632;8.346;2022-07-29T01:25:05;6.28;;;1.63;;
19810;SDS011;10065;49.632;8.346;2022-07-29T01:27:47;6.55;;;1.73;;
19810;SDS011;10065;49.632;8.346;2022-07-29T01:30:29;5.00;;;1.77;;
19810;SDS011;10065;49.632;8.346;2022-07-29T01:33:00;6.40;;;1.77;;
19810;SDS011;10065;49.632;8.346;2022-07-29T01:35:31;4.38;;;1.98;;
19810;SDS011;10065;49.632;8.346;2022-07-29T01:38:05;6.40;;;2.50;;
19810;SDS011;10065;49.632;8.346;2022-07-29T01:40:38;7.82;;;2.33;;
19810;SDS011;10065;49.632;8.346;2022-07-29T01:43:11;5.93;;;1.70;;
19810;SDS011;10065;49.632;8.346;2022-07-29T01:45:46;5.03;;;2.07;;
19810;SDS011;10065;49.632;8.346;2022-07-29T01:48:24;7.30;;;2.13;;
19810;SDS011;10065;49.632;8.346;2022-07-29T01:51:01;10.63;;;2.60;;
19810;SDS011;10065;49.632;8.346;2022-07-29T01:53:34;6.53;;;1.60;;
19810;SDS011;10065;49.632;8.346;2022-07-29T01:56:05;7.03;;;1.70;;
19810;SDS011;10065;49.632;8.346;2022-07-29T01:58:36;4.43;;;1.80;;
19810;SDS011;10065;49.632;8.346;2022-07-29T02:01:09;4.45;;;1.90;;
19810;SDS011;10065;49.632;8.346;2022-07-29T02:03:39;7.10;;;2.22;;
19810;SDS011;10065;49.632;8.346;2022-07-29T02:06:12;5.50;;;2.08;;
19810;SDS011;10065;49.632;8.346;2022-07-29T02:08:44;10.25;;;2.25;;
19810;SDS011;10065;49.632;8.346;2022-07-29T02:11:14;8.67;;;2.13;;
19810;SDS011;10065;49.632;8.346;2022-07-29T02:13:42;6.07;;;1.90;;
19810;SDS011;10065;49.632;8.346;2022-07-29T02:16:12;4.97;;;2.25;;
19810;SDS011;10065;49.632;8.346;2022-07-29T02:18:43;5.43;;;1.97;;
19810;SDS011;10065;49.632;8.346;2022-07-29T02:21:12;7.55;;;2.25;;
19810;SDS011;10065;49.632;8.346;2022-07-29T02:23:46;6.13;;;2.30;;
19810;SDS011;10065;49.632;8.346;2022-07-29T02:26:17;4.33;;;1.93;;
19810;SDS011;10065;49.632;8.346;2022-07-29T02:28:46;18.30;;;2.42;;
19810;SDS011;10065;49.632;8.346;2022-07-29T02:31:18;4.90;;;1.87;;
19810;SDS011;10065;49.632;8.346;2022-07-29T02:33:49;4.90;;;1.77;;
19810;SDS011;10065;49.632;8.346;2022-07-29T02:36:20;10.00;;;2.20;;
19810;SDS011;10065;49.632;8.346;2022-07-29T02:38:49;6.45;;;1.80;;
19810;SDS011;10065;49.632;8.346;2022-07-29T02:41:18;6.63;;;1.63;;
19810;SDS011;10065;49.632;8.346;2022-07-29T02:43:52;3.90;;;1.92;;
19810;SDS011;10065;49.632;8.346;2022-07-29T02:46:27;6.40;;;1.80;;
19810;SDS011;10065;49.632;8.346;2022-07-29T02:48:59;8.00;;;2.20;;
19810;SDS011;10065;49.632;8.346;2022-07-29T02:51:33;3.43;;;1.83;;
19810;SDS011;10065;49.632;8.346;2022-07-29T02:54:11;5.07;;;1.63;;
19810;SDS011;10065;49.632;8.346;2022-07-29T02:56:46;4.33;;;1.53;;
19810;SDS011;10065;49.632;8.346;2022-07-29T02:59:19;5.20;;;1.70;;
19810;SDS011;10065;49.632;8.346;2022-07-29T03:01:53;6.93;;;1.80;;
19810;SDS011;10065;49.632;8.346;2022-07-29T03:04:23;3.73;;;2.10;;
19810;SDS011;10065;49.632;8.346;2022-07-29T03:06:52;7.63;;;2.07;;
19810;SDS011;10065;49.632;8.346;2022-07-29T03:09:21;15.30;;;2.43;;
19810;SDS011;10065;49.632;8.346;2022-07-29T03:11:50;7.20;;;1.80;;
19810;SDS011;10065;49.632;8.346;2022-07-29T03:14:20;12.20;;;2.10;;
19810;SDS011;10065;49.632;8.346;2022-07-29T03:16:49;6.50;;;2.07;;
19810;SDS011;10065;49.632;8.346;2022-07-29T03:19:19;9.97;;;2.43;;
19810;SDS011;10065;49.632;8.346;2022-07-29T03:21:47;7.60;;;2.10;;
19810;SDS011;10065;49.632;8.346;2022-07-29T03:24:25;4.83;;;1.67;;
19810;SDS011;10065;49.632;8.346;2022-07-29T03:26:54;9.20;;;1.97;;
19810;SDS011;10065;49.632;8.346;2022-07-29T03:29:22;11.27;;;2.53;;
19810;SDS011;10065;49.632;8.346;2022-07-29T03:31:58;6.73;;;2.33;;
19810;SDS011;10065;49.632;8.346;2022-07-29T03:34:30;7.80;;;1.93;;
19810;SDS011;10065;49.632;8.346;2022-07-29T03:36:57;5.23;;;2.30;;
19810;SDS011;10065;49.632;8.346;2022-07-29T03:39:27;8.70;;;2.23;;
19810;SDS011;10065;49.632;8.346;2022-07-29T03:41:58;7.83;;;2.30;;
19810;SDS011;10065;49.632;8.346;2022-07-29T03:44:28;8.70;;;1.80;;
19810;SDS011;10065;49.632;8.346;2022-07-29T03:46:58;5.13;;;2.00;;
19810;SDS011;10065;49.632;8.346;2022-07-29T03:49:29;6.27;;;2.80;;
19810;SDS011;10065;49.632;8.346;2022-07-29T03:51:59;5.67;;;2.57;;
19810;SDS011;10065;49.632;8.346;2022-07-29T03:54:27;8.43;;;2.23;;
19810;SDS011;10065;49.632;8.346;2022-07-29T03:56:55;5.67;;;2.40;;
19810;SDS011;10065;49.632;8.346;2022-07-29T03:59:26;6.50;;;2.13;;
19810;SDS011;10065;49.632;8.346;2022-07-29T04:01:55;7.10;;;2.30;;
19810;SDS011;10065;49.632;8.346;2022-07-29T04:04:24;9.57;;;2.47;;
19810;SDS011;10065;49.632;8.346;2022-07-29T04:06:55;5.87;;;2.00;;
19810;SDS011;10065;49.632;8.346;2022-07-29T04:09:23;4.63;;;2.20;;
19810;SDS011;10065;49.632;8.346;2022-07-29T04:11:50;6.90;;;2.10;;
19810;SDS011;10065;49.632;8.346;2022-07-29T04:14:30;10.43;;;2.30;;
19810;SDS011;10065;49.632;8.346;2022-07-29T04:16:58;5.33;;;2.10;;
19810;SDS011;10065;49.632;8.346;2022-07-29T04:19:26;4.20;;;2.10;;
19810;SDS011;10065;49.632;8.346;2022-07-29T04:21:55;12.57;;;3.10;;
19810;SDS011;10065;49.632;8.346;2022-07-29T04:24:22;11.13;;;2.60;;
19810;SDS011;10065;49.632;8.346;2022-07-29T04:26:51;4.60;;;1.93;;
19810;SDS011;10065;49.632;8.346;2022-07-29T04:29:18;6.20;;;1.90;;
19810;SDS011;10065;49.632;8.346;2022-07-29T04:31:46;5.63;;;2.10;;
19810;SDS011;10065;49.632;8.346;2022-07-29T04:34:14;9.27;;;2.27;;
19810;SDS011;10065;49.632;8.346;2022-07-29T04:36:43;5.57;;;2.43;;
19810;SDS011;10065;49.632;8.346;2022-07-29T04:39:12;7.43;;;2.30;;
19810;SDS011;10065;49.632;8.346;2022-07-29T04:41:47;6.97;;;2.30;;
19810;SDS011;10065;49.632;8.346;2022-07-29T04:44:17;7.67;;;2.43;;
19810;SDS011;10065;49.632;8.346;2022-07-29T04:46:45;12.00;;;2.93;;
19810;SDS011;10065;49.632;8.346;2022-07-29T04:49:13;8.37;;;2.70;;
19810;SDS011;10065;49.632;8.346;2022-07-29T04:51:41;9.67;;;4.20;;
19810;SDS011;10065;49.632;8.346;2022-07-29T04:54:09;21.93;;;5.73;;
19810;SDS011;10065;49.632;8.346;2022-07-29T04:56:38;13.37;;;6.20;;
19810;SDS011;10065;49.632;8.346;2022-07-29T04:59:06;15.50;;;8.13;;
19810;SDS011;10065;49.632;8.346;2022-07-29T05:01:33;19.27;;;9.13;;
19810;SDS011;10065;49.632;8.346;2022-07-29T05:04:01;15.53;;;8.87;;
19810;SDS011;10065;49.632;8.346;2022-07-29T05:06:29;18.33;;;9.97;;
19810;SDS011;10065;49.632;8.346;2022-07-29T05:08:57;21.97;;;10.37;;
19810;SDS011;10065;49.632;8.346;2022-07-29T05:11:25;21.10;;;11.50;;
19810;SDS011;10065;49.632;8.346;2022-07-29T05:13:57;24.33;;;11.50;;
19810;SDS011;10065;49.632;8.346;2022-07-29T05:16:25;19.50;;;9.90;;
19810;SDS011;10065;49.632;8.346;2022-07-29T05:18:53;17.27;;;9.60;;
19810;SDS011;10065;49.632;8.346;2022-07-29T05:21:21;21.00;;;9.00;;
19810;SDS011;10065;49.632;8.346;2022-07-29T05:23:49;15.60;;;8.43;;
19810;SDS011;10065;49.632;8.346;2022-07-29T05:26:16;17.53;;;7.27;;
19810;SDS011;10065;49.632;8.346;2022-07-29T05:28:44;15.77;;;7.13;;
19810;SDS011;10065;49.632;8.346;2022-07-29T05:31:13;13.80;;;5.97;;
19810;SDS011;10065;49.632;8.346;2022-07-29T05:33:41;11.77;;;4.93;;
19810;SDS011;10065;49.632;8.346;2022-07-29T05:36:09;9.13;;;3.60;;
19810;SDS011;10065;49.632;8.346;2022-07-29T05:38:37;9.40;;;2.90;;
19810;SDS011;10065;49.632;8.346;2022-07-29T05:41:05;10.90;;;3.20;;
19810;SDS011;10065;49.632;8.346;2022-07-29T05:43:33;10.23;;;3.00;;
19810;SDS011;10065;49.632;8.346;2022-07-29T05:46:01;6.33;;;2.57;;
19810;SDS011;10065;49.632;8.346;2022-07-29T05:48:30;15.23;;;2.70;;
19810;SDS011;10065;49.632;8.346;2022-07-29T05:50:58;7.33;;;2.50;;
19810;SDS011;10065;49.632;8.346;2022-07-29T05:53:26;8.17;;;3.17;;
19810;SDS011;10065;49.632;8.346;2022-07-29T05:55:54;11.97;;;3.20;;
19810;SDS011;10065;49.632;8.346;2022-07-29T05:58:22;8.57;;;3.10;;
19810;SDS011;10065;49.632;8.346;2022-07-29T06:00:50;8.07;;;2.57;;
19810;SDS011;10065;49.632;8.346;2022-07-29T06:03:19;10.27;;;3.17;;
19810;SDS011;10065;49.632;8.346;2022-07-29T06:05:48;7.73;;;2.20;;
19810;SDS011;10065;49.632;8.346;2022-07-29T06:08:15;7.63;;;3.30;;
19810;SDS011;10065;49.632;8.346;2022-07-29T06:10:43;7.97;;;3.10;;
19810;SDS011;10065;49.632;8.346;2022-07-29T06:13:11;17.80;;;2.77;;
19810;SDS011;10065;49.632;8.346;2022-07-29T06:15:42;17.73;;;3.00;;
19810;SDS011;10065;49.632;8.346;2022-07-29T06:18:10;32.87;;;4.87;;
19810;SDS011;10065;49.632;8.346;2022-07-29T06:20:39;15.75;;;3.72;;
19810;SDS011;10065;49.632;8.346;2022-07-29T06:23:08;8.80;;;3.20;;
19810;SDS011;10065;49.632;8.346;2022-07-29T06:25:36;11.50;;;3.50;;
19810;SDS011;10065;49.632;8.346;2022-07-29T06:28:05;7.35;;;3.03;;
19810;SDS011;10065;49.632;8.346;2022-07-29T06:30:33;11.07;;;2.72;;
19810;SDS011;10065;49.632;8.346;2022-07-29T06:33:01;7.93;;;2.88;;
19810;SDS011;10065;49.632;8.346;2022-07-29T06:35:29;12.95;;;2.80;;
19810;SDS011;10065;49.632;8.346;2022-07-29T06:38:09;8.45;;;2.72;;
19810;SDS011;10065;49.632;8.346;2022-07-29T06:40:57;10.05;;;3.17;;
19810;SDS011;10065;49.632;8.346;2022-07-29T06:43:29;12.55;;;3.28;;
19810;SDS011;10065;49.632;8.346;2022-07-29T06:46:00;9.57;;;2.47;;
19810;SDS011;10065;49.632;8.346;2022-07-29T06:48:29;10.85;;;3.33;;
19810;SDS011;10065;49.632;8.346;2022-07-29T06:50:57;7.60;;;2.90;;
19810;SDS011;10065;49.632;8.346;2022-07-29T06:53:27;12.38;;;4.03;;
19810;SDS011;10065;49.632;8.346;2022-07-29T06:55:55;10.05;;;2.90;;
19810;SDS011;10065;49.632;8.346;2022-07-29T06:58:24;11.00;;;2.83;;
19810;SDS011;10065;49.632;8.346;2022-07-29T07:00:52;6.55;;;2.58;;
19810;SDS011;10065;49.632;8.346;2022-07-29T07:03:20;6.95;;;2.78;;
19810;SDS011;10065;49.632;8.346;2022-07-29T07:05:48;9.45;;;2.80;;
19810;SDS011;10065;49.632;8.346;2022-07-29T07:08:16;11.80;;;3.35;;
19810;SDS011;10065;49.632;8.346;2022-07-29T07:10:45;14.25;;;3.08;;
19810;SDS011;10065;49.632;8.346;2022-07-29T07:13:13;10.75;;;3.38;;
19810;SDS011;10065;49.632;8.346;2022-07-29T07:15:43;9.70;;;3.13;;
19810;SDS011;10065;49.632;8.346;2022-07-29T07:18:11;10.07;;;2.97;;
19810;SDS011;10065;49.632;8.346;2022-07-29T07:20:39;11.68;;;2.85;;
19810;SDS011;10065;49.632;8.346;2022-07-29T07:23:07;14.48;;;2.80;;
19810;SDS011;10065;49.632;8.346;2022-07-29T07:25:34;6.55;;;2.38;;
19810;SDS011;10065;49.632;8.346;2022-07-29T07:28:05;7.63;;;2.53;;
19810;SDS011;10065;49.632;8.346;2022-07-29T07:30:33;6.50;;;3.08;;
19810;SDS011;10065;49.632;8.346;2022-07-29T07:33:00;8.63;;;2.92;;
19810;SDS011;10065;49.632;8.346;2022-07-29T07:35:28;7.03;;;2.95;;
19810;SDS011;10065;49.632;8.346;2022-07-29T07:37:56;6.18;;;3.28;;
19810;SDS011;10065;49.632;8.346;2022-07-29T07:40:24;7.03;;;3.10;;
19810;SDS011;10065;49.632;8.346;2022-07-29T07:42:52;7.72;;;2.60;;
19810;SDS011;10065;49.632;8.346;2022-07-29T07:45:21;6.82;;;3.00;;
19810;SDS011;10065;49.632;8.346;2022-07-29T07:47:49;6.18;;;3.00;;
19810;SDS011;10065;49.632;8.346;2022-07-29T07:50:17;11.73;;;2.90;;
19810;SDS011;10065;49.632;8.346;2022-07-29T07:52:45;5.78;;;2.72;;
19810;SDS011;10065;49.632;8.346;2022-07-29T07:55:14;6.68;;;2.90;;
19810;SDS011;10065;49.632;8.346;2022-07-29T07:57:43;8.93;;;3.10;;
19810;SDS011;10065;49.632;8.346;2022-07-29T08:00:12;7.22;;;3.00;;
19810;SDS011;10065;49.632;8.346;2022-07-29T08:02:43;8.10;;;3.05;;
19810;SDS011;10065;49.632;8.346;2022-07-29T08:05:12;6.20;;;2.67;;
19810;SDS011;10065;49.632;8.346;2022-07-29T08:07:43;6.50;;;3.15;;
19810;SDS011;10065;49.632;8.346;2022-07-29T08:10:12;7.50;;;2.85;;
19810;SDS011;10065;49.632;8.346;2022-07-29T08:12:41;4.85;;;2.90;;
19810;SDS011;10065;49.632;8.346;2022-07-29T08:15:09;6.78;;;3.15;;
19810;SDS011;10065;49.632;8.346;2022-07-29T08:17:36;6.90;;;3.47;;
19810;SDS011;10065;49.632;8.346;2022-07-29T08:20:06;6.72;;;3.00;;
19810;SDS011;10065;49.632;8.346;2022-07-29T08:22:34;6.53;;;3.22;;
19810;SDS011;10065;49.632;8.346;2022-07-29T08:25:02;6.18;;;3.10;;
19810;SDS011;10065;49.632;8.346;2022-07-29T08:27:30;10.90;;;3.28;;
19810;SDS011;10065;49.632;8.346;2022-07-29T08:30:09;9.50;;;3.78;;
19810;SDS011;10065;49.632;8.346;2022-07-29T08:32:37;11.70;;;4.07;;
19810;SDS011;10065;49.632;8.346;2022-07-29T08:35:23;9.50;;;3.35;;
19810;SDS011;10065;49.632;8.346;2022-07-29T08:37:51;7.50;;;3.63;;
19810;SDS011;10065;49.632;8.346;2022-07-29T08:40:20;12.77;;;3.80;;
19810;SDS011;10065;49.632;8.346;2022-07-29T08:42:57;7.22;;;3.20;;
19810;SDS011;10065;49.632;8.346;2022-07-29T08:45:26;7.82;;;3.33;;
19810;SDS011;10065;49.632;8.346;2022-07-29T08:47:56;5.15;;;3.05;;
19810;SDS011;10065;49.632;8.346;2022-07-29T08:50:25;6.93;;;3.60;;
19810;SDS011;10065;49.632;8.346;2022-07-29T08:52:53;9.50;;;3.13;;
19810;SDS011;10065;49.632;8.346;2022-07-29T08:55:25;10.30;;;3.90;;
19810;SDS011;10065;49.632;8.346;2022-07-29T08:57:54;14.30;;;3.67;;
19810;SDS011;10065;49.632;8.346;2022-07-29T09:00:22;9.05;;;3.40;;
19810;SDS011;10065;49.632;8.346;2022-07-29T09:02:56;8.75;;;3.38;;
19810;SDS011;10065;49.632;8.346;2022-07-29T09:05:27;6.60;;;3.20;;
19810;SDS011;10065;49.632;8.346;2022-07-29T09:07:55;10.38;;;3.63;;
19810;SDS011;10065;49.632;8.346;2022-07-29T09:10:23;7.35;;;3.70;;
19810;SDS011;10065;49.632;8.346;2022-07-29T09:12:51;6.30;;;3.10;;
19810;SDS011;10065;49.632;8.346;2022-07-29T09:15:19;6.82;;;3.00;;
19810;SDS011;10065;49.632;8.346;2022-07-29T09:17:48;13.43;;;3.55;;
19810;SDS011;10065;49.632;8.346;2022-07-29T09:20:17;8.15;;;3.55;;
19810;SDS011;10065;49.632;8.346;2022-07-29T09:22:48;6.78;;;3.63;;
19810;SDS011;10065;49.632;8.346;2022-07-29T09:25:31;8.95;;;3.83;;
19810;SDS011;10065;49.632;8.346;2022-07-29T09:28:05;7.00;;;3.22;;
19810;SDS011;10065;49.632;8.346;2022-07-29T09:30:34;7.18;;;3.70;;
19810;SDS011;10065;49.632;8.346;2022-07-29T09:33:02;7.65;;;3.60;;
19810;SDS011;10065;49.632;8.346;2022-07-29T09:35:31;8.48;;;3.28;;
19810;SDS011;10065;49.632;8.346;2022-07-29T09:38:05;9.00;;;3.97;;
19810;SDS011;10065;49.632;8.346;2022-07-29T09:40:37;9.10;;;3.80;;
19810;SDS011;10065;49.632;8.346;2022-07-29T09:43:10;8.77;;;3.38;;
19810;SDS011;10065;49.632;8.346;2022-07-29T09:45:38;7.53;;;3.22;;
19810;SDS011;10065;49.632;8.346;2022-07-29T09:48:13;8.48;;;3.75;;
19810;SDS011;10065;49.632;8.346;2022-07-29T09:50:43;11.65;;;3.95;;
19810;SDS011;10065;49.632;8.346;2022-07-29T09:53:17;9.25;;;4.07;;
19810;SDS011;10065;49.632;8.346;2022-07-29T09:55:58;6.40;;;3.45;;
19810;SDS011;10065;49.632;8.346;2022-07-29T09:58:26;6.00;;;3.42;;
19810;SDS011;10065;49.632;8.346;2022-07-29T10:00:56;8.77;;;3.97;;
19810;SDS011;10065;49.632;8.346;2022-07-29T10:03:24;8.00;;;3.38;;
19810;SDS011;10065;49.632;8.346;2022-07-29T10:06:05;5.35;;;3.13;;
19810;SDS011;10065;49.632;8.346;2022-07-29T10:08:36;10.65;;;3.67;;
19810;SDS011;10065;49.632;8.346;2022-07-29T10:11:11;10.10;;;3.17;;
19810;SDS011;10065;49.632;8.346;2022-07-29T10:13:39;8.55;;;2.85;;
19810;SDS011;10065;49.632;8.346;2022-07-29T10:16:08;6.47;;;3.50;;
19810;SDS011;10065;49.632;8.346;2022-07-29T10:18:37;8.25;;;3.50;;
19810;SDS011;10065;49.632;8.346;2022-07-29T10:21:06;8.38;;;3.58;;
19810;SDS011;10065;49.632;8.346;2022-07-29T10:23:34;9.43;;;3.63;;
19810;SDS011;10065;49.632;8.346;2022-07-29T10:26:13;6.50;;;3.45;;
19810;SDS011;10065;49.632;8.346;2022-07-29T10:28:43;6.25;;;3.20;;
19810;SDS011;10065;49.632;8.346;2022-07-29T10:31:12;9.30;;;3.55;;
19810;SDS011;10065;49.632;8.346;2022-07-29T10:33:51;7.68;;;3.80;;
19810;SDS011;10065;49.632;8.346;2022-07-29T10:36:43;7.65;;;4.43;;
19810;SDS011;10065;49.632;8.346;2022-07-29T10:39:24;15.63;;;3.50;;
19810;SDS011;10065;49.632;8.346;2022-07-29T10:42:17;4.55;;;3.15;;
19810;SDS011;10065;49.632;8.346;2022-07-29T10:44:59;11.25;;;3.80;;
19810;SDS011;10065;49.632;8.346;2022-07-29T10:47:29;9.10;;;3.83;;
19810;SDS011;10065;49.632;8.346;2022-07-29T10:50:01;7.57;;;3.70;;
19810;SDS011;10065;49.632;8.346;2022-07-29T10:52:51;11.10;;;3.20;;
19810;SDS011;10065;49.632;8.346;2022-07-29T10:55:30;5.70;;;3.30;;
19810;SDS011;10065;49.632;8.346;2022-07-29T10:58:15;9.15;;;3.45;;
19810;SDS011;10065;49.632;8.346;2022-07-29T11:00:45;7.25;;;3.45;;
19810;SDS011;10065;49.632;8.346;2022-07-29T11:06:16;4.63;;;3.25;;
19810;SDS011;10065;49.632;8.346;2022-07-29T11:11:42;5.07;;;3.40;;
19810;SDS011;10065;49.632;8.346;2022-07-29T11:17:26;5.93;;;3.53;;
19810;SDS011;10065;49.632;8.346;2022-07-29T11:20:30;6.32;;;3.10;;
19810;SDS011;10065;49.632;8.346;2022-07-29T11:23:02;6.72;;;3.33;;
19810;SDS011;10065;49.632;8.346;2022-07-29T11:25:54;6.90;;;3.30;;
19810;SDS011;10065;49.632;8.346;2022-07-29T11:28:48;6.75;;;3.00;;
19810;SDS011;10065;49.632;8.346;2022-07-29T11:31:31;6.22;;;3.70;;
19810;SDS011;10065;49.632;8.346;2022-07-29T11:34:18;6.30;;;3.58;;
19810;SDS011;10065;49.632;8.346;2022-07-29T11:40:10;6.90;;;3.47;;
19810;SDS011;10065;49.632;8.346;2022-07-29T11:42:47;10.23;;;3.55;;
19810;SDS011;10065;49.632;8.346;2022-07-29T11:45:18;8.85;;;4.07;;
19810;SDS011;10065;49.632;8.346;2022-07-29T11:48:14;7.53;;;3.15;;
19810;SDS011;10065;49.632;8.346;2022-07-29T11:50:57;6.93;;;3.38;;
19810;SDS011;10065;49.632;8.346;2022-07-29T11:53:26;5.78;;;3.60;;
19810;SDS011;10065;49.632;8.346;2022-07-29T11:55:58;9.18;;;3.17;;
19810;SDS011;10065;49.632;8.346;2022-07-29T11:58:28;6.20;;;2.97;;
19810;SDS011;10065;49.632;8.346;2022-07-29T12:00:57;4.88;;;3.40;;
19810;SDS011;10065;49.632;8.346;2022-07-29T12:03:31;6.50;;;3.17;;
19810;SDS011;10065;49.632;8.346;2022-07-29T12:06:04;8.43;;;3.25;;
19810;SDS011;10065;49.632;8.346;2022-07-29T12:08:41;8.68;;;3.88;;
19810;SDS011;10065;49.632;8.346;2022-07-29T12:11:16;6.50;;;3.42;;
19810;SDS011;10065;49.632;8.346;2022-07-29T12:13:47;11.25;;;3.70;;
19810;SDS011;10065;49.632;8.346;2022-07-29T12:16:15;7.57;;;3.10;;
19810;SDS011;10065;49.632;8.346;2022-07-29T12:18:56;6.10;;;3.35;;
19810;SDS011;10065;49.632;8.346;2022-07-29T12:21:24;7.78;;;3.55;;
19810;SDS011;10065;49.632;8.346;2022-07-29T12:23:54;5.38;;;3.53;;
19810;SDS011;10065;49.632;8.346;2022-07-29T12:26:30;7.50;;;3.67;;
19810;SDS011;10065;49.632;8.346;2022-07-29T12:29:01;9.25;;;3.90;;
19810;SDS011;10065;49.632;8.346;2022-07-29T12:31:36;14.10;;;3.88;;
19810;SDS011;10065;49.632;8.346;2022-07-29T12:34:11;6.68;;;3.72;;
19810;SDS011;10065;49.632;8.346;2022-07-29T12:36:40;13.50;;;3.78;;
19810;SDS011;10065;49.632;8.346;2022-07-29T12:39:09;9.02;;;3.15;;
19810;SDS011;10065;49.632;8.346;2022-07-29T12:41:38;90.10;;;8.65;;
19810;SDS011;10065;49.632;8.346;2022-07-29T12:44:06;13.20;;;4.32;;
19810;SDS011;10065;49.632;8.346;2022-07-29T12:46:34;7.90;;;4.30;;
19810;SDS011;10065;49.632;8.346;2022-07-29T12:49:02;13.35;;;4.70;;
19810;SDS011;10065;49.632;8.346;2022-07-29T12:51:32;9.05;;;4.65;;
19810;SDS011;10065;49.632;8.346;2022-07-29T12:54:03;6.25;;;3.85;;
19810;SDS011;10065;49.632;8.346;2022-07-29T12:56:33;6.80;;;4.10;;
19810;SDS011;10065;49.632;8.346;2022-07-29T12:59:11;7.63;;;3.83;;
19810;SDS011;10065;49.632;8.346;2022-07-29T13:01:40;6.00;;;3.70;;
19810;SDS011;10065;49.632;8.346;2022-07-29T13:04:08;11.70;;;4.35;;
19810;SDS011;10065;49.632;8.346;2022-07-29T13:06:38;6.45;;;3.70;;
19810;SDS011;10065;49.632;8.346;2022-07-29T13:09:12;7.43;;;3.38;;
19810;SDS011;10065;49.632;8.346;2022-07-29T13:11:42;9.07;;;3.50;;
19810;SDS011;10065;49.632;8.346;2022-07-29T13:14:14;6.50;;;3.58;;
19810;SDS011;10065;49.632;8.346;2022-07-29T13:17:01;6.28;;;3.30;;
19810;SDS011;10065;49.632;8.346;2022-07-29T13:19:32;9.23;;;3.63;;
19810;SDS011;10065;49.632;8.346;2022-07-29T13:22:07;8.70;;;3.78;;
19810;SDS011;10065;49.632;8.346;2022-07-29T13:24:44;4.75;;;3.40;;
19810;SDS011;10065;49.632;8.346;2022-07-29T13:27:13;9.18;;;4.00;;
19810;SDS011;10065;49.632;8.346;2022-07-29T13:29:41;6.30;;;3.90;;
19810;SDS011;10065;49.632;8.346;2022-07-29T13:32:10;4.55;;;3.20;;
19810;SDS011;10065;49.632;8.346;2022-07-29T13:34:39;5.35;;;3.42;;
19810;SDS011;10065;49.632;8.346;2022-07-29T13:37:08;5.95;;;3.35;;
19810;SDS011;10065;49.632;8.346;2022-07-29T13:39:36;17.80;;;3.92;;
19810;SDS011;10065;49.632;8.346;2022-07-29T13:42:04;6.30;;;3.75;;
19810;SDS011;10065;49.632;8.346;2022-07-29T13:44:36;6.65;;;3.85;;
19810;SDS011;10065;49.632;8.346;2022-07-29T13:47:04;6.57;;;2.92;;
19810;SDS011;10065;49.632;8.346;2022-07-29T13:49:32;8.25;;;3.58;;
19810;SDS011;10065;49.632;8.346;2022-07-29T13:52:00;5.28;;;3.25;;
19810;SDS011;10065;49.632;8.346;2022-07-29T13:54:29;5.53;;;3.40;;
19810;SDS011;10065;49.632;8.346;2022-07-29T13:56:56;7.25;;;2.92;;
19810;SDS011;10065;49.632;8.346;2022-07-29T13:59:24;6.38;;;3.28;;
19810;SDS011;10065;49.632;8.346;2022-07-29T14:01:52;7.85;;;3.20;;
19810;SDS011;10065;49.632;8.346;2022-07-29T14:04:20;8.05;;;3.13;;
19810;SDS011;10065;49.632;8.346;2022-07-29T14:06:49;5.22;;;3.17;;
19810;SDS011;10065;49.632;8.346;2022-07-29T14:09:17;6.00;;;3.35;;
19810;SDS011;10065;49.632;8.346;2022-07-29T14:11:46;6.80;;;3.67;;
19810;SDS011;10065;49.632;8.346;2022-07-29T14:14:16;7.88;;;3.40;;
19810;SDS011;10065;49.632;8.346;2022-07-29T14:16:44;6.53;;;3.28;;
19810;SDS011;10065;49.632;8.346;2022-07-29T14:19:17;7.10;;;3.20;;
19810;SDS011;10065;49.632;8.346;2022-07-29T14:21:44;4.82;;;2.90;;
19810;SDS011;10065;49.632;8.346;2022-07-29T14:24:12;6.65;;;3.13;;
19810;SDS011;10065;49.632;8.346;2022-07-29T14:26:48;7.45;;;3.00;;
19810;SDS011;10065;49.632;8.346;2022-07-29T14:29:16;6.60;;;3.20;;
19810;SDS011;10065;49.632;8.346;2022-07-29T14:31:43;5.28;;;3.45;;
19810;SDS011;10065;49.632;8.346;2022-07-29T14:34:11;6.22;;;2.95;;
19810;SDS011;10065;49.632;8.346;2022-07-29T14:36:41;6.35;;;4.18;;
19810;SDS011;10065;49.632;8.346;2022-07-29T14:39:09;5.05;;;3.20;;
19810;SDS011;10065;49.632;8.346;2022-07-29T14:41:38;5.97;;;3.15;;
19810;SDS011;10065;49.632;8.346;2022-07-29T14:44:07;5.25;;;2.70;;
19810;SDS011;10065;49.632;8.346;2022-07-29T14:46:34;7.63;;;3.20;;
19810;SDS011;10065;49.632;8.346;2022-07-29T14:49:02;13.30;;;7.47;;
19810;SDS011;10065;49.632;8.346;2022-07-29T14:51:32;9.50;;;3.83;;
19810;SDS011;10065;49.632;8.346;2022-07-29T14:54:00;6.75;;;2.67;;
19810;SDS011;10065;49.632;8.346;2022-07-29T14:56:28;5.85;;;2.85;;
19810;SDS011;10065;49.632;8.346;2022-07-29T14:59:13;5.70;;;2.70;;
19810;SDS011;10065;49.632;8.346;2022-07-29T15:01:41;4.95;;;2.80;;
19810;SDS011;10065;49.632;8.346;2022-07-29T15:04:09;5.32;;;2.95;;
19810;SDS011;10065;49.632;8.346;2022-07-29T15:06:37;5.95;;;3.42;;
19810;SDS011;10065;49.632;8.346;2022-07-29T15:09:04;5.20;;;3.20;;
19810;SDS011;10065;49.632;8.346;2022-07-29T15:11:32;5.18;;;3.05;;
19810;SDS011;10065;49.632;8.346;2022-07-29T15:14:03;6.88;;;3.20;;
19810;SDS011;10065;49.632;8.346;2022-07-29T15:16:34;6.05;;;2.67;;
19810;SDS011;10065;49.632;8.346;2022-07-29T15:19:03;9.10;;;2.95;;
19810;SDS011;10065;49.632;8.346;2022-07-29T15:21:31;6.30;;;3.47;;